Time;durP1;ratioP1;P1;durP2;ratioP2;P2;SDS_P1;SDS_P2;PMS_P1;PMS_P2;Temp;Humidity;BMP_temperature;BMP_pressure;BME280_temperature;BME280_humidity;BME280_pressure;Samples;Min_cycle;Max_cycle;Signal;HPM_P1;HPM_P2
2021/03/05 00:00:57;;;;;;;9.00;1.20;;;;;;;15.14;61.38;100276.03;5005004;28;20145;-76
2021/03/05 00:03:23;;;;;;;3.23;0.73;;;;;;;15.10;61.44;100271.34;5005703;28;20123;-83
2021/03/05 00:05:49;;;;;;;4.30;0.93;;;;;;;15.10;61.43;100262.91;5002927;28;20042;-65
2021/03/05 00:08:16;;;;;;;6.60;1.03;;;;;;;15.08;61.42;100260.41;5001140;28;20073;-66
2021/03/05 00:10:43;;;;;;;6.63;1.30;;;;;;;15.10;61.33;100248.84;4997749;28;20077;-67
2021/03/05 00:13:11;;;;;;;5.10;1.00;;;;;;;15.15;61.00;100243.94;5000706;28;20064;-64
2021/03/05 00:15:42;;;;;;;2.13;0.90;;;;;;;15.23;60.92;100252.75;5006041;28;20131;-66
2021/03/05 00:18:10;;;;;;;1.80;0.70;;;;;;;15.26;60.92;100252.09;4997350;28;20054;-65
2021/03/05 00:20:40;;;;;;;2.43;1.13;;;;;;;15.26;60.87;100244.50;5007690;28;20137;-64
2021/03/05 00:23:07;;;;;;;5.13;0.80;;;;;;;15.27;60.82;100248.13;5002468;28;20057;-67
2021/03/05 00:25:34;;;;;;;3.63;0.90;;;;;;;15.28;60.83;100250.66;5004647;28;20045;-69
2021/03/05 00:28:00;;;;;;;2.40;1.23;;;;;;;15.27;60.79;100254.59;5002609;28;20046;-65
2021/03/05 00:30:27;;;;;;;8.97;1.00;;;;;;;15.30;60.68;100241.88;5004338;28;20038;-66
2021/03/05 00:32:54;;;;;;;2.43;0.40;;;;;;;15.31;60.70;100240.72;4998398;28;20058;-65
2021/03/05 00:35:22;;;;;;;2.83;1.00;;;;;;;15.27;60.79;100232.09;5001839;28;20046;-71
2021/03/05 00:37:50;;;;;;;3.13;0.80;;;;;;;15.28;60.63;100239.41;5001030;28;20038;-66
2021/03/05 00:40:17;;;;;;;3.70;0.77;;;;;;;14.98;60.62;100179.09;5003270;28;20132;-69
2021/03/05 00:42:45;;;;;;;4.90;1.13;;;;;;;15.28;60.51;100233.78;5004137;28;20045;-74
2021/03/05 00:45:14;;;;;;;4.93;0.80;;;;;;;15.19;60.62;100224.44;4998067;28;20049;-70
2021/03/05 00:47:41;;;;;;;5.80;0.90;;;;;;;15.27;60.46;100239.69;4999383;28;20092;-69
2021/03/05 00:50:11;;;;;;;3.63;1.17;;;;;;;15.14;60.75;100232.97;5003972;28;20092;-69
2021/03/05 00:52:37;;;;;;;3.03;0.98;;;;;;;14.95;60.79;100218.28;4999418;28;20069;-67
2021/03/05 00:55:08;;;;;;;3.67;0.97;;;;;;;14.93;60.89;100210.16;4999463;28;20141;-68
2021/03/05 00:57:35;;;;;;;8.07;1.10;;;;;;;15.02;60.92;100236.38;5002922;28;20238;-69
2021/03/05 01:00:08;;;;;;;6.73;1.07;;;;;;;14.97;60.91;100232.84;5003412;28;20046;-69
2021/03/05 01:02:34;;;;;;;3.97;0.80;;;;;;;14.95;60.99;100235.97;5002752;28;20411;-69
2021/03/05 01:05:01;;;;;;;3.83;1.23;;;;;;;14.93;61.00;100249.50;5002542;28;20045;-69
2021/03/05 01:07:28;;;;;;;2.17;0.83;;;;;;;14.98;60.82;100240.16;5003159;28;20050;-69
2021/03/05 01:09:54;;;;;;;1.33;0.70;;;;;;;15.04;60.77;100238.84;5005434;28;20050;-69
2021/03/05 01:12:21;;;;;;;1.37;0.80;;;;;;;15.10;60.42;100243.22;4998361;28;20211;-70
2021/03/05 01:14:47;;;;;;;5.77;1.20;;;;;;;14.98;60.50;100217.66;4996238;28;20518;-69
2021/03/05 01:17:14;;;;;;;2.90;1.00;;;;;;;15.13;60.49;100236.94;5005589;28;20053;-69
2021/03/05 01:19:41;;;;;;;1.20;0.77;;;;;;;15.07;60.60;100236.22;5004757;28;20047;-69
2021/03/05 01:22:07;;;;;;;3.50;1.30;;;;;;;15.02;60.51;100225.13;4999677;28;20145;-70
2021/03/05 01:24:34;;;;;;;3.03;1.10;;;;;;;15.09;60.51;100227.50;4998139;28;20048;-76
2021/03/05 01:27:02;;;;;;;5.67;1.80;;;;;;;15.13;60.22;100232.16;5005184;28;20069;-70
2021/03/05 01:29:29;;;;;;;7.20;2.37;;;;;;;15.16;60.46;100233.50;4998142;28;20050;-71
2021/03/05 01:31:55;;;;;;;4.53;1.47;;;;;;;15.15;60.41;100231.84;5000889;28;20057;-72
2021/03/05 01:34:22;;;;;;;5.20;1.03;;;;;;;15.14;60.37;100235.78;4999145;28;20042;-70
2021/03/05 01:36:48;;;;;;;3.80;1.33;;;;;;;15.12;60.49;100229.66;5001625;28;20074;-70
2021/03/05 01:39:14;;;;;;;5.97;1.33;;;;;;;15.11;60.51;100226.03;5003305;28;20129;-71
2021/03/05 01:41:41;;;;;;;3.47;1.50;;;;;;;15.08;60.56;100228.66;5000447;28;20051;-70
2021/03/05 01:44:10;;;;;;;4.50;1.80;;;;;;;15.09;60.67;100219.06;5003280;28;20414;-70
2021/03/05 01:46:36;;;;;;;9.03;2.10;;;;;;;15.09;60.75;100224.69;5001534;28;20057;-74
2021/03/05 01:49:04;;;;;;;9.73;2.00;;;;;;;15.00;60.70;100199.28;5001645;28;20058;-72
2021/03/05 01:51:32;;;;;;;4.33;1.37;;;;;;;15.10;60.71;100206.66;4999596;28;20479;-70
2021/03/05 01:53:59;;;;;;;4.47;1.30;;;;;;;15.09;60.81;100217.06;4998169;28;20133;-69
2021/03/05 01:56:45;;;;;;;3.57;1.60;;;;;;;15.04;60.89;100205.09;5005687;28;20046;-71
2021/03/05 01:59:18;;;;;;;5.90;1.53;;;;;;;15.04;60.86;100205.09;5009626;28;20049;-79
2021/03/05 02:01:44;;;;;;;10.00;2.07;;;;;;;15.03;60.89;100214.69;5005744;28;20495;-76
2021/03/05 02:04:12;;;;;;;5.87;2.00;;;;;;;14.92;60.82;100188.81;5002017;28;20136;-75
2021/03/05 02:06:58;;;;;;;4.70;2.10;;;;;;;15.00;60.95;100201.28;5004911;28;20131;-69
2021/03/05 02:09:24;;;;;;;4.53;1.80;;;;;;;14.96;61.14;100194.63;5006674;28;20096;-68
2021/03/05 02:11:50;;;;;;;6.40;1.67;;;;;;;14.93;61.15;100185.66;5002059;28;20043;-66
2021/03/05 02:14:17;;;;;;;4.73;1.70;;;;;;;14.81;60.95;100168.56;4999257;28;20053;-67
2021/03/05 02:17:01;;;;;;;5.40;2.23;;;;;;;14.87;61.17;100180.50;5005828;28;20501;-64
2021/03/05 02:20:03;;;;;;;3.73;1.83;;;;;;;14.83;61.25;100183.09;5006968;28;20081;-64
2021/03/05 02:22:51;;;;;;;6.50;2.07;;;;;;;14.80;61.34;100180.97;5005551;28;20051;-68
2021/03/05 02:26:25;;;;;;;4.50;2.13;;;;;;;14.74;61.39;100175.78;4999412;28;20058;-67
2021/03/05 02:29:13;;;;;;;3.93;1.77;;;;;;;14.71;61.47;100180.03;4979185;28;20062;-67
2021/03/05 02:31:44;;;;;;;4.53;1.33;;;;;;;14.70;61.72;100178.41;4981997;28;20474;-77
2021/03/05 02:34:35;;;;;;;2.90;1.37;;;;;;;14.75;61.46;100180.25;4999037;28;20132;-76
2021/03/05 02:37:25;;;;;;;4.80;1.80;;;;;;;14.81;61.60;100176.16;5003712;28;20088;-70
2021/03/05 02:40:02;;;;;;;4.95;2.00;;;;;;;14.82;61.34;100169.38;5003245;28;20049;-71
2021/03/05 02:42:51;;;;;;;7.57;1.87;;;;;;;14.81;61.46;100160.13;4999977;28;20133;-69
2021/03/05 02:45:21;;;;;;;5.17;2.40;;;;;;;14.82;61.56;100152.50;5004335;28;20507;-69
2021/03/05 02:47:52;;;;;;;4.90;1.87;;;;;;;14.83;61.65;100160.63;5010261;28;20046;-68
2021/03/05 02:50:20;;;;;;;6.23;2.17;;;;;;;14.81;61.67;100167.72;5000192;28;20052;-69
2021/03/05 02:52:49;;;;;;;6.57;2.00;;;;;;;14.82;61.74;100173.03;5000591;28;20054;-70
2021/03/05 02:55:16;;;;;;;5.80;2.00;;;;;;;14.81;61.67;100162.94;5005224;28;20051;-70
2021/03/05 02:57:46;;;;;;;2.87;1.60;;;;;;;14.79;61.75;100165.22;5000953;28;20419;-70
2021/03/05 03:00:18;;;;;;;4.30;2.07;;;;;;;14.78;61.76;100157.13;4996998;28;20072;-74
2021/03/05 03:02:47;;;;;;;3.83;1.53;;;;;;;14.74;61.91;100156.94;5004762;28;20047;-71
2021/03/05 03:05:14;;;;;;;6.32;1.55;;;;;;;14.72;62.01;100145.16;5003222;28;20050;-72
2021/03/05 03:07:47;;;;;;;7.33;1.93;;;;;;;14.72;61.99;100138.72;5007931;28;20442;-69
2021/03/05 03:10:16;;;;;;;5.07;1.97;;;;;;;14.71;62.07;100128.63;5007789;28;20510;-72
2021/03/05 03:12:45;;;;;;;6.23;1.73;;;;;;;14.69;62.26;100132.56;5000618;28;20185;-73
2021/03/05 03:15:13;;;;;;;5.27;2.00;;;;;;;14.66;62.25;100135.19;4999268;28;20407;-70
2021/03/05 03:17:42;;;;;;;5.30;1.87;;;;;;;14.70;62.35;100133.41;5002205;28;20049;-68
2021/03/05 03:20:12;;;;;;;7.45;2.47;;;;;;;14.69;62.21;100124.13;5002988;28;20046;-70
2021/03/05 03:22:40;;;;;;;5.05;2.38;;;;;;;14.71;62.09;100123.84;4999527;28;20038;-64
2021/03/05 03:25:07;;;;;;;6.60;2.40;;;;;;;14.72;62.28;100131.09;5007823;28;20057;-64
2021/03/05 03:27:35;;;;;;;7.13;2.30;;;;;;;14.72;62.28;100135.91;5001378;28;20077;-65
2021/03/05 03:30:03;;;;;;;4.77;2.10;;;;;;;14.73;62.18;100127.13;5005277;28;20411;-64
2021/03/05 03:32:30;;;;;;;7.23;2.10;;;;;;;14.71;62.30;100129.47;5003419;28;20042;-66
2021/03/05 03:34:57;;;;;;;4.80;2.10;;;;;;;14.70;62.34;100110.94;5004002;28;20096;-66
2021/03/05 03:37:24;;;;;;;11.87;2.57;;;;;;;14.69;62.31;100106.44;5005346;28;20567;-66
2021/03/05 03:39:51;;;;;;;3.37;2.00;;;;;;;14.74;62.30;100114.75;5002348;28;20042;-65
2021/03/05 03:42:17;;;;;;;6.90;2.10;;;;;;;14.75;62.22;100119.22;5003884;28;20487;-66
2021/03/05 03:44:43;;;;;;;5.37;2.10;;;;;;;14.72;62.23;100119.88;5001587;28;20046;-65
2021/03/05 03:47:10;;;;;;;3.33;1.77;;;;;;;14.68;62.51;100110.41;4999389;28;20053;-66
2021/03/05 03:49:47;;;;;;;7.63;2.60;;;;;;;14.57;62.30;100089.34;5005737;28;20107;-66
2021/03/05 03:52:21;;;;;;;9.20;2.43;;;;;;;14.65;62.36;100106.25;5004148;28;20061;-65
2021/03/05 03:54:51;;;;;;;7.73;2.83;;;;;;;14.56;62.47;100093.28;5001594;28;20830;-65
2021/03/05 03:57:21;;;;;;;6.00;2.50;;;;;;;14.45;62.47;100076.63;5001513;28;20046;-65
2021/03/05 03:59:50;;;;;;;4.63;2.33;;;;;;;14.62;62.41;100104.06;4999816;28;20049;-63
2021/03/05 04:02:19;;;;;;;10.40;2.37;;;;;;;14.61;62.54;100112.84;5003910;28;20046;-63
2021/03/05 04:04:47;;;;;;;7.38;2.60;;;;;;;14.59;62.61;100104.72;5000101;28;20046;-63
2021/03/05 04:07:14;;;;;;;5.63;2.33;;;;;;;14.59;62.60;100115.94;4998182;28;20043;-64
2021/03/05 04:09:41;;;;;;;8.80;2.20;;;;;;;14.57;62.45;100109.84;5006112;28;20056;-71
2021/03/05 04:12:08;;;;;;;5.47;2.13;;;;;;;14.60;62.49;100106.41;4999527;28;20054;-70
2021/03/05 04:14:35;;;;;;;6.63;2.23;;;;;;;14.62;62.72;100100.44;5002549;28;20045;-67
2021/03/05 04:17:02;;;;;;;7.63;2.10;;;;;;;14.64;62.45;100103.78;4996191;28;20546;-67
2021/03/05 04:19:30;;;;;;;3.50;2.10;;;;;;;14.57;62.64;100089.34;5002328;28;20521;-67
2021/03/05 04:21:57;;;;;;;11.90;2.73;;;;;;;14.64;62.65;100106.59;5002886;28;20050;-67
2021/03/05 04:24:23;;;;;;;6.87;2.23;;;;;;;14.62;62.67;100103.25;4998140;28;20045;-66
2021/03/05 04:26:50;;;;;;;5.20;2.13;;;;;;;14.62;62.77;100106.88;5003339;28;20129;-67
2021/03/05 04:29:17;;;;;;;7.23;2.87;;;;;;;14.64;62.79;100095.34;5000368;28;20518;-67
2021/03/05 04:31:43;;;;;;;9.23;3.60;;;;;;;14.65;62.63;100106.25;5001278;28;20538;-67
2021/03/05 04:34:10;;;;;;;3.97;2.47;;;;;;;14.66;62.70;100104.28;4996638;28;20105;-68
2021/03/05 04:36:36;;;;;;;6.70;2.47;;;;;;;14.68;62.72;100113.22;5002652;28;20077;-68
2021/03/05 04:39:04;;;;;;;5.07;2.67;;;;;;;14.68;62.74;100108.44;5006432;28;20046;-63
2021/03/05 04:41:31;;;;;;;5.63;2.73;;;;;;;14.62;62.47;100097.63;5005127;28;20046;-63
2021/03/05 04:43:58;;;;;;;8.83;2.80;;;;;;;14.60;62.35;100105.56;5000860;28;20519;-64
2021/03/05 04:46:28;;;;;;;9.37;2.40;;;;;;;14.55;62.42;100086.00;5000327;28;20038;-63
2021/03/05 04:48:54;;;;;;;8.32;2.83;;;;;;;14.68;62.38;100104.78;5000168;28;20039;-63
2021/03/05 04:51:21;;;;;;;8.67;2.50;;;;;;;14.68;62.41;100107.59;5017816;23;20046;-66
2021/03/05 04:53:48;;;;;;;5.87;2.33;;;;;;;14.54;62.36;100092.78;4968197;28;20042;-65
2021/03/05 04:56:14;;;;;;;7.40;2.53;;;;;;;14.56;62.47;100098.91;4997418;28;20396;-66
2021/03/05 04:58:40;;;;;;;8.80;2.93;;;;;;;14.59;62.71;100123.56;4996197;28;20061;-66
2021/03/05 05:01:07;;;;;;;7.87;2.67;;;;;;;14.42;62.54;100090.50;4995563;28;20050;-66
2021/03/05 05:03:33;;;;;;;10.37;3.27;;;;;;;14.49;62.45;100095.66;4999121;28;20582;-67
2021/03/05 05:05:59;;;;;;;8.23;2.93;;;;;;;14.48;62.64;100102.44;4996874;28;20414;-67
2021/03/05 05:08:26;;;;;;;7.07;2.57;;;;;;;14.55;62.45;100114.09;4996776;28;20047;-68
2021/03/05 05:10:52;;;;;;;11.23;2.60;;;;;;;14.55;62.63;100108.50;4999856;28;20133;-65
2021/03/05 05:13:18;;;;;;;7.37;2.73;;;;;;;14.46;62.50;100099.94;4998274;28;20491;-67
2021/03/05 05:15:45;;;;;;;5.67;2.70;;;;;;;14.39;62.63;100091.13;4995759;28;20050;-66
2021/03/05 05:18:12;;;;;;;8.37;2.87;;;;;;;14.43;62.63;100106.22;4991200;28;20054;-65
2021/03/05 05:20:38;;;;;;;8.27;2.53;;;;;;;14.15;62.69;100071.75;5012146;28;20065;-64
2021/03/05 05:23:04;;;;;;;14.30;3.33;;;;;;;14.44;62.52;100113.50;5013493;28;20048;-66
2021/03/05 05:25:31;;;;;;;7.80;3.00;;;;;;;14.37;62.40;100105.50;5020995;28;20550;-64
2021/03/05 05:27:57;;;;;;;6.87;2.77;;;;;;;14.38;62.49;100115.56;5014164;28;20046;-66
2021/03/05 05:30:24;;;;;;;5.33;2.40;;;;;;;14.27;62.65;100096.50;5021414;28;20057;-63
2021/03/05 05:32:50;;;;;;;12.37;3.23;;;;;;;14.33;62.84;100120.50;5014059;28;20049;-62
2021/03/05 05:35:17;;;;;;;12.63;3.70;;;;;;;14.24;62.88;100103.56;5018391;28;20042;-65
2021/03/05 05:37:43;;;;;;;7.10;3.37;;;;;;;14.31;62.92;100126.44;5015629;28;20438;-65
2021/03/05 05:40:10;;;;;;;7.90;3.10;;;;;;;14.13;63.13;100088.09;5015340;28;20392;-64
2021/03/05 05:42:36;;;;;;;8.73;3.43;;;;;;;14.27;63.01;100119.78;5020861;28;20049;-64
2021/03/05 05:45:03;;;;;;;11.73;3.67;;;;;;;14.25;62.82;100119.25;5016754;28;20124;-67
2021/03/05 05:47:34;;;;;;;11.30;4.63;;;;;;;14.29;63.03;100116.66;5018976;28;20463;-66
2021/03/05 05:50:04;;;;;;;9.23;4.00;;;;;;;14.26;63.07;100109.72;5021910;28;20470;-70
2021/03/05 05:52:32;;;;;;;12.77;4.37;;;;;;;14.31;63.03;100115.19;5015149;28;20410;-69
2021/03/05 05:55:03;;;;;;;11.33;4.87;;;;;;;14.33;63.29;100112.91;5019770;28;20437;-70
2021/03/05 05:57:31;;;;;;;7.33;3.83;;;;;;;14.37;63.22;100119.53;5015035;28;20045;-67
2021/03/05 05:59:59;;;;;;;9.53;3.90;;;;;;;14.38;63.33;100117.56;5019760;28;20414;-68
2021/03/05 06:02:29;;;;;;;10.27;3.97;;;;;;;14.27;63.21;100102.94;5020679;28;20428;-66
2021/03/05 06:04:57;;;;;;;10.23;3.83;;;;;;;14.38;63.14;100120.38;5012043;28;20525;-67
2021/03/05 06:07:24;;;;;;;7.87;3.87;;;;;;;14.38;63.30;100126.81;5012534;28;20466;-72
2021/03/05 06:10:07;;;;;;;7.97;4.13;;;;;;;14.36;63.28;100122.69;5015219;28;20063;-72
2021/03/05 06:12:33;;;;;;;11.37;4.20;;;;;;;14.28;63.29;100117.81;5018032;28;20103;-72
2021/03/05 06:15:00;;;;;;;10.00;4.53;;;;;;;14.33;63.32;100134.56;5017433;28;20484;-72
2021/03/05 06:17:43;;;;;;;11.27;4.60;;;;;;;14.27;63.38;100125.41;5017156;28;20054;-74
2021/03/05 06:20:10;;;;;;;7.77;4.23;;;;;;;14.28;63.43;100135.47;5014585;28;20045;-74
2021/03/05 06:22:37;;;;;;;9.80;4.37;;;;;;;14.33;63.45;100141.00;5016610;28;20049;-71
2021/03/05 06:25:06;;;;;;;9.33;4.30;;;;;;;14.36;63.71;100142.34;5016076;28;20046;-71
2021/03/05 06:27:32;;;;;;;13.80;4.37;;;;;;;14.25;63.68;100124.88;5012188;28;20050;-70
2021/03/05 06:29:58;;;;;;;7.43;4.20;;;;;;;14.29;63.61;100134.34;5011714;28;20057;-71
2021/03/05 06:32:40;;;;;;;8.17;4.30;;;;;;;14.37;63.43;100142.03;5018320;28;20470;-71
2021/03/05 06:35:09;;;;;;;10.63;4.03;;;;;;;14.39;63.52;100141.69;5019071;28;20486;-72
2021/03/05 06:37:41;;;;;;;12.30;5.13;;;;;;;14.31;63.56;100137.66;5013901;28;20410;-67
2021/03/05 06:40:23;;;;;;;9.03;4.53;;;;;;;14.31;63.63;100132.03;5014647;28;20052;-74
2021/03/05 06:42:56;;;;;;;13.83;4.67;;;;;;;14.35;63.71;100138.69;5023874;28;20037;-67
2021/03/05 06:45:35;;;;;;;11.77;4.40;;;;;;;14.30;63.57;100130.38;5016528;28;20052;-63
2021/03/05 06:48:04;;;;;;;9.30;4.30;;;;;;;14.32;63.49;100132.88;5019001;28;20148;-63
2021/03/05 06:50:37;;;;;;;10.27;5.13;;;;;;;14.29;63.72;100131.53;5023664;28;20067;-62
2021/03/05 06:53:24;;;;;;;9.47;5.20;;;;;;;14.34;63.65;100141.81;5023659;28;20072;-63
2021/03/05 06:55:50;;;;;;;8.40;4.13;;;;;;;14.29;63.98;100139.97;5025624;28;20380;-64
2021/03/05 06:58:17;;;;;;;12.87;5.87;;;;;;;14.29;63.98;100134.34;5022710;28;20049;-64
2021/03/05 07:00:43;;;;;;;11.47;4.73;;;;;;;14.34;64.14;100139.00;5022244;28;20050;-63
2021/03/05 07:03:21;;;;;;;9.93;4.40;;;;;;;14.21;63.87;100112.63;5020615;28;20401;-63
2021/03/05 07:05:53;;;;;;;13.07;5.27;;;;;;;14.39;63.71;100145.34;5015006;28;20124;-69
2021/03/05 07:08:39;;;;;;;12.83;5.17;;;;;;;14.42;63.48;100144.69;5014546;28;20092;-61
2021/03/05 07:11:30;;;;;;;11.73;5.10;;;;;;;14.38;63.57;100128.81;5017498;28;20050;-66
2021/03/05 07:13:56;;;;;;;9.13;4.53;;;;;;;14.38;63.62;100142.84;5016002;28;20049;-65
2021/03/05 07:16:22;;;;;;;12.50;5.07;;;;;;;14.34;63.77;100162.31;5013708;28;20410;-62
2021/03/05 07:18:50;;;;;;;13.23;4.33;;;;;;;14.15;63.86;100151.22;5015106;28;20132;-63
2021/03/05 07:21:20;;;;;;;12.43;5.67;;;;;;;14.15;63.91;100154.03;5018381;28;20064;-63
2021/03/05 07:23:48;;;;;;;27.52;17.17;;;;;;;14.11;64.24;100160.56;5021927;28;20046;-63
2021/03/05 07:26:14;;;;;;;33.70;24.33;;;;;;;14.08;64.35;100161.19;5018820;28;20072;-63
2021/03/05 07:28:45;;;;;;;27.43;19.13;;;;;;;14.08;64.34;100166.81;5020338;28;20124;-62
2021/03/05 07:31:16;;;;;;;19.87;9.63;;;;;;;14.07;64.38;100173.59;5018982;28;20483;-64
2021/03/05 07:33:48;;;;;;;15.17;6.97;;;;;;;14.08;64.35;100178.06;5013236;28;20042;-63
2021/03/05 07:36:15;;;;;;;18.03;6.80;;;;;;;13.86;64.21;100131.91;5015428;28;20038;-64
2021/03/05 07:38:46;;;;;;;10.97;5.77;;;;;;;14.11;64.32;100174.63;5018077;28;20502;-63
2021/03/05 07:41:14;;;;;;;20.93;8.87;;;;;;;14.14;64.30;100179.59;5021962;28;20046;-64
2021/03/05 07:43:42;;;;;;;16.97;9.10;;;;;;;14.18;64.34;100183.44;5019914;28;20052;-62
2021/03/05 07:46:08;;;;;;;24.40;14.93;;;;;;;14.25;64.23;100191.44;5031549;28;20120;-62
2021/03/05 07:48:35;;;;;;;15.23;9.33;;;;;;;14.14;64.51;100171.19;5020143;28;20053;-63
2021/03/05 07:51:02;;;;;;;14.70;5.80;;;;;;;14.31;63.97;100188.22;5014462;28;20046;-63
2021/03/05 07:53:29;;;;;;;18.17;6.13;;;;;;;14.36;63.49;100190.94;5019534;28;20050;-63
2021/03/05 07:55:58;;;;;;;18.33;6.90;;;;;;;14.36;62.75;100179.69;5019166;28;20132;-64
2021/03/05 07:58:46;;;;;;;13.87;6.47;;;;;;;14.62;62.39;100198.81;5016244;28;20061;-63
2021/03/05 08:01:12;;;;;;;21.47;6.20;;;;;;;14.76;61.95;100198.75;5021761;28;20245;-64
2021/03/05 08:03:59;;;;;;;17.33;7.07;;;;;;;14.90;61.74;100205.16;5018419;28;20049;-62
2021/03/05 08:06:29;;;;;;;26.43;6.87;;;;;;;15.01;61.24;100202.91;5021105;28;20049;-62
2021/03/05 08:09:09;;;;;;;14.90;5.88;;;;;;;15.10;60.98;100203.84;5017993;28;20056;-63
2021/03/05 08:11:38;;;;;;;15.95;6.05;;;;;;;15.15;60.64;100201.72;5013258;28;20046;-63
2021/03/05 08:14:20;;;;;;;16.77;7.27;;;;;;;15.26;60.84;100215.53;5016083;28;20506;-62
2021/03/05 08:16:48;;;;;;;17.87;7.17;;;;;;;15.28;60.89;100214.06;5020959;28;20071;-62
2021/03/05 08:19:16;;;;;;;10.83;5.97;;;;;;;15.30;61.20;100228.63;5012905;28;20054;-64
2021/03/05 08:21:51;;;;;;;10.73;4.97;;;;;;;15.29;61.35;100218.53;5019465;28;20406;-63
2021/03/05 08:24:25;;;;;;;12.70;5.47;;;;;;;15.28;61.28;100216.03;5015234;28;20122;-64
2021/03/05 08:27:05;;;;;;;9.47;5.20;;;;;;;15.32;61.41;100223.53;5018171;28;20053;-64
2021/03/05 08:29:46;;;;;;;11.87;5.87;;;;;;;15.37;61.51;100223.38;5017540;28;20038;-65
2021/03/05 08:32:34;;;;;;;15.23;6.07;;;;;;;15.43;61.48;100223.28;5024091;28;20045;-64
2021/03/05 08:35:02;;;;;;;11.97;5.23;;;;;;;15.51;61.45;100228.09;5019827;28;20042;-64
2021/03/05 08:38:11;;;;;;;13.70;4.53;;;;;;;15.44;61.57;100208.88;5017325;28;20060;-63
2021/03/05 08:41:03;;;;;;;14.33;5.10;;;;;;;15.62;61.63;100238.78;5020217;28;20814;-63
2021/03/05 08:43:35;;;;;;;9.73;4.33;;;;;;;15.63;61.51;100239.63;5020412;28;20132;-64
2021/03/05 08:46:09;;;;;;;9.47;4.03;;;;;;;15.73;61.48;100249.81;5022003;28;20049;-64
2021/03/05 08:48:42;;;;;;;10.60;4.53;;;;;;;15.78;61.28;100247.66;5018993;28;20045;-62
2021/03/05 08:51:16;;;;;;;14.63;5.40;;;;;;;15.86;61.26;100260.97;5017403;28;20045;-63
2021/03/05 08:53:45;;;;;;;7.60;4.80;;;;;;;15.93;61.12;100256.84;5014441;28;20486;-65
2021/03/05 08:56:18;;;;;;;16.90;5.27;;;;;;;16.00;61.07;100249.63;5015313;28;20096;-64
2021/03/05 08:58:44;;;;;;;15.27;5.77;;;;;;;16.16;60.84;100246.34;5019201;28;20188;-64
2021/03/05 09:01:27;;;;;;;14.33;6.37;;;;;;;16.45;60.64;100257.91;5020848;28;20061;-63
2021/03/05 09:04:27;;;;;;;17.53;6.00;;;;;;;16.75;59.76;100247.72;5022976;28;20076;-62
2021/03/05 09:06:58;;;;;;;16.10;5.90;;;;;;;17.26;58.72;100256.50;5025097;28;20129;-75
2021/03/05 09:09:27;;;;;;;17.60;6.97;;;;;;;17.55;58.10;100238.06;5018972;28;20397;-70
2021/03/05 09:12:13;;;;;;;15.10;5.97;;;;;;;18.06;56.98;100251.25;5022091;28;20582;-62
2021/03/05 09:14:42;;;;;;;23.58;6.50;;;;;;;18.29;56.40;100248.13;5020524;28;20081;-64
2021/03/05 09:17:09;;;;;;;13.05;5.22;;;;;;;18.80;55.48;100255.50;5015562;28;20114;-65
2021/03/05 09:19:39;;;;;;;25.85;7.60;;;;;;;19.07;54.90;100254.16;5016126;28;20152;-65
2021/03/05 09:22:19;;;;;;;16.73;7.75;;;;;;;19.36;53.80;100239.09;5014558;28;20060;-67
2021/03/05 09:24:49;;;;;;;25.75;8.10;;;;;;;19.75;53.15;100253.06;5018771;28;20053;-65
2021/03/05 09:27:18;;;;;;;19.95;6.93;;;;;;;20.11;52.46;100246.66;5014841;28;20046;-69
2021/03/05 09:29:44;;;;;;;21.23;8.45;;;;;;;20.45;51.79;100255.88;5017320;28;20050;-65
2021/03/05 09:32:11;;;;;;;27.95;9.52;;;;;;;20.65;50.80;100237.09;5011851;28;20060;-68
2021/03/05 09:34:53;;;;;;;37.25;8.50;;;;;;;21.03;50.11;100251.72;5016171;28;20402;-66
2021/03/05 09:37:21;;;;;;;29.35;9.02;;;;;;;21.22;48.91;100245.38;5012981;28;20057;-67
2021/03/05 09:39:51;;;;;;;23.20;8.00;;;;;;;21.52;48.19;100237.34;5016518;28;20391;-67
2021/03/05 09:42:57;;;;;;;28.02;9.63;;;;;;;21.80;48.06;100256.38;5015636;28;20046;-66
2021/03/05 09:45:52;;;;;;;38.28;9.25;;;;;;;22.03;47.46;100244.41;5021832;28;20045;-70
2021/03/05 09:48:35;;;;;;;28.70;9.18;;;;;;;21.99;46.19;100242.31;5010387;28;20046;-67
2021/03/05 09:51:03;;;;;;;33.90;8.40;;;;;;;22.44;45.57;100243.06;5013521;28;20157;-63
2021/03/05 09:53:35;;;;;;;19.27;7.18;;;;;;;22.38;43.49;100244.53;5016484;28;20053;-69
2021/03/05 09:56:10;;;;;;;25.58;7.70;;;;;;;22.48;43.04;100259.03;5013037;28;20053;-67
2021/03/05 09:58:37;;;;;;;25.88;8.50;;;;;;;22.77;42.86;100258.88;5018035;28;20103;-67
2021/03/05 10:01:06;;;;;;;36.15;7.85;;;;;;;22.77;41.48;100254.03;5017026;28;20072;-67
2021/03/05 10:03:32;;;;;;;20.13;6.32;;;;;;;23.23;41.92;100265.69;5016082;28;20053;-66
2021/03/05 10:05:59;;;;;;;28.48;7.82;;;;;;;23.35;41.45;100262.72;5017889;28;20058;-68
2021/03/05 10:08:28;;;;;;;15.48;5.63;;;;;;;23.28;40.85;100250.31;5013194;28;20069;-70
2021/03/05 10:11:07;;;;;;;24.83;5.90;;;;;;;22.07;39.03;100211.22;5012732;28;20050;-70
2021/03/05 10:13:45;;;;;;;35.00;7.53;;;;;;;21.79;39.34;100249.06;5016782;28;20529;-71
2021/03/05 10:16:16;;;;;;;23.33;6.50;;;;;;;21.26;39.59;100263.38;5015603;28;20060;-68
2021/03/05 10:18:44;;;;;;;24.95;7.05;;;;;;;20.97;39.83;100270.16;5018911;28;20045;-70
2021/03/05 10:21:12;;;;;;;26.67;7.22;;;;;;;20.56;40.11;100220.22;5020082;28;20049;-70
2021/03/05 10:23:39;;;;;;;40.20;9.57;;;;;;;20.87;40.33;100262.13;5019751;28;20047;-68
2021/03/05 10:26:13;;;;;;;28.48;7.18;;;;;;;21.05;40.63;100251.34;5017706;28;20053;-67
2021/03/05 10:28:44;;;;;;;30.00;7.32;;;;;;;21.13;40.29;100266.56;5020067;28;20111;-67
2021/03/05 10:31:10;;;;;;;26.30;8.52;;;;;;;21.11;40.72;100268.97;5020673;28;20041;-68
2021/03/05 10:33:42;;;;;;;33.40;9.55;;;;;;;21.39;41.04;100264.16;5017415;28;20048;-66
2021/03/05 10:36:10;;;;;;;22.67;8.18;;;;;;;21.83;40.71;100263.38;5015664;28;20068;-67
2021/03/05 10:38:37;;;;;;;32.35;8.75;;;;;;;22.34;40.18;100269.22;5019396;28;20447;-67
2021/03/05 10:41:05;;;;;;;26.77;8.30;;;;;;;22.83;39.39;100255.38;5023580;28;20042;-68
2021/03/05 10:43:35;;;;;;;37.65;10.25;;;;;;;23.31;39.47;100256.09;5018564;28;20139;-68
2021/03/05 10:46:08;;;;;;;33.83;7.45;;;;;;;23.81;38.43;100257.16;5023221;28;20049;-67
2021/03/05 10:48:34;;;;;;;33.30;8.27;;;;;;;24.28;38.16;100266.56;5022796;28;20045;-67
2021/03/05 10:51:01;;;;;;;44.53;10.05;;;;;;;24.72;37.02;100266.13;5022726;28;20037;-66
2021/03/05 10:53:27;;;;;;;27.98;7.93;;;;;;;25.14;36.94;100265.13;5016284;28;20083;-67
2021/03/05 10:55:55;;;;;;;29.55;8.75;;;;;;;25.39;36.07;100271.19;5016604;28;20454;-68
2021/03/05 10:58:21;;;;;;;32.03;7.55;;;;;;;25.54;36.08;100255.88;5020997;28;20051;-66
2021/03/05 11:00:48;;;;;;;35.13;8.85;;;;;;;25.95;35.47;100273.13;5022813;28;20115;-67
2021/03/05 11:03:15;;;;;;;28.30;8.85;;;;;;;26.39;34.42;100263.72;5018304;28;20042;-66
2021/03/05 11:05:42;;;;;;;27.17;7.82;;;;;;;26.80;34.43;100267.38;5018059;28;20049;-66
2021/03/05 11:08:11;;;;;;;34.88;10.32;;;;;;;27.14;33.24;100275.81;5017007;28;20153;-65
2021/03/05 11:10:37;;;;;;;29.80;8.90;;;;;;;27.43;33.35;100273.94;5026080;28;20168;-66
2021/03/05 11:13:07;;;;;;;30.02;7.95;;;;;;;27.48;32.62;100247.72;5017278;28;20132;-64
2021/03/05 11:15:33;;;;;;;36.33;9.93;;;;;;;27.50;32.35;100268.22;5015150;28;20132;-64
2021/03/05 11:18:00;;;;;;;35.13;8.35;;;;;;;27.43;32.42;100253.84;5017809;28;20045;-67
2021/03/05 11:20:26;;;;;;;34.95;9.00;;;;;;;27.43;32.18;100268.19;5017115;28;20064;-65
2021/03/05 11:22:53;;;;;;;45.70;10.15;;;;;;;27.22;32.00;100268.91;5015207;28;20049;-63
2021/03/05 11:25:20;;;;;;;30.73;8.63;;;;;;;27.26;32.21;100263.19;5016297;28;20052;-64
2021/03/05 11:27:47;;;;;;;32.20;7.80;;;;;;;27.10;31.71;100255.69;5014070;28;20053;-67
2021/03/05 11:30:14;;;;;;;39.15;10.15;;;;;;;27.04;31.75;100263.03;5015131;28;20719;-65
2021/03/05 11:32:41;;;;;;;42.00;8.32;;;;;;;27.19;31.87;100263.16;5021218;28;20406;-64
2021/03/05 11:35:08;;;;;;;27.67;7.88;;;;;;;27.39;31.67;100267.38;5019548;28;20042;-66
2021/03/05 11:37:34;;;;;;;35.10;7.70;;;;;;;27.85;30.82;100272.47;5016069;28;20497;-66